createdAt,value
2022-09-24T00:01:59.418Z,55.28
2022-09-24T00:04:27.511Z,55.43
2022-09-24T00:06:55.337Z,55.53
2022-09-24T00:09:23.298Z,55.69
2022-09-24T00:11:52.883Z,55.83
2022-09-24T00:14:21.067Z,56.00
2022-09-24T00:16:49.064Z,55.96
2022-09-24T00:19:16.774Z,56.03
2022-09-24T00:21:44.756Z,56.02
2022-09-24T00:24:34.669Z,56.10
2022-09-24T00:27:03.527Z,56.24
2022-09-24T00:29:33.474Z,56.28
2022-09-24T00:32:01.831Z,56.49
2022-09-24T00:34:29.982Z,56.47
2022-09-24T00:36:58.588Z,56.63
2022-09-24T00:39:26.856Z,56.54
2022-09-24T00:41:55.162Z,56.65
2022-09-24T00:44:40.795Z,56.66
2022-09-24T00:47:11.578Z,56.75
2022-09-24T00:49:40.436Z,56.80
2022-09-24T00:52:08.632Z,56.85
2022-09-24T00:54:36.906Z,56.94
2022-09-24T00:57:04.822Z,56.69
2022-09-24T00:59:32.816Z,56.91
2022-09-24T01:02:02.509Z,56.93
2022-09-24T01:04:30.587Z,57.09
2022-09-24T01:06:58.977Z,57.24
2022-09-24T01:09:27.394Z,57.47
2022-09-24T01:12:02.123Z,57.43
2022-09-24T01:14:37.472Z,57.50
2022-09-24T01:17:11.098Z,57.37
2022-09-24T01:19:48.943Z,57.34
2022-09-24T01:22:23.302Z,57.32
2022-09-24T01:24:58.664Z,57.24
2022-09-24T01:27:31.602Z,57.61
2022-09-24T01:30:04.283Z,57.46
2022-09-24T01:32:36.811Z,57.50
2022-09-24T01:35:08.232Z,57.53
2022-09-24T01:37:37.687Z,57.55
2022-09-24T01:40:07.477Z,57.27
2022-09-24T01:42:37.770Z,57.40
2022-09-24T01:45:06.848Z,57.28
2022-09-24T01:47:39.227Z,57.20
2022-09-24T01:50:08.797Z,57.35
2022-09-24T01:52:40.912Z,57.48
2022-09-24T01:55:11.180Z,57.24
2022-09-24T01:57:42.153Z,57.44
2022-09-24T02:00:13.592Z,57.43
2022-09-24T02:02:45.384Z,57.47
2022-09-24T02:05:16.596Z,57.63
2022-09-24T02:07:50.080Z,57.36
2022-09-24T02:10:20.452Z,57.53
2022-09-24T02:12:50.446Z,57.46
2022-09-24T02:15:20.975Z,57.47
2022-09-24T02:17:52.826Z,57.55
2022-09-24T02:20:21.386Z,57.65
2022-09-24T02:22:50.101Z,57.44
2022-09-24T02:25:20.715Z,57.48
2022-09-24T02:27:48.541Z,57.59
2022-09-24T02:30:16.777Z,57.69
2022-09-24T02:32:44.757Z,57.62
2022-09-24T02:35:13.020Z,57.55
2022-09-24T02:37:41.690Z,57.68
2022-09-24T02:40:11.769Z,57.83
2022-09-24T02:42:40.612Z,57.90
2022-09-24T02:45:09.622Z,57.92
2022-09-24T02:47:37.770Z,57.86
2022-09-24T02:50:06.575Z,58.14
2022-09-24T02:52:34.469Z,58.16
2022-09-24T02:55:02.393Z,58.26
2022-09-24T02:57:30.264Z,58.27
2022-09-24T02:59:58.143Z,58.21
2022-09-24T03:02:26.043Z,58.19
2022-09-24T03:04:54.584Z,58.33
2022-09-24T03:07:22.410Z,58.37
2022-09-24T03:09:50.156Z,58.62
2022-09-24T03:12:17.949Z,58.65
2022-09-24T03:14:45.867Z,58.75
2022-09-24T03:17:13.583Z,58.83
2022-09-24T03:19:41.448Z,58.93
2022-09-24T03:22:09.351Z,58.95
2022-09-24T03:24:37.056Z,59.15
2022-09-24T03:27:04.931Z,59.24
2022-09-24T03:29:50.730Z,59.21
2022-09-24T03:32:18.623Z,59.19
2022-09-24T03:34:46.796Z,59.29
2022-09-24T03:37:14.622Z,59.29
2022-09-24T03:39:42.616Z,59.16
2022-09-24T03:42:10.497Z,59.12
2022-09-24T03:44:38.428Z,59.00
2022-09-24T03:47:06.348Z,59.01
2022-09-24T03:49:34.372Z,59.04
2022-09-24T03:52:02.491Z,59.16
2022-09-24T03:54:30.767Z,59.21
2022-09-24T03:56:58.624Z,59.11
2022-09-24T03:59:26.554Z,59.05
2022-09-24T04:01:54.821Z,59.03
2022-09-24T04:04:22.978Z,59.00
2022-09-24T04:06:52.257Z,58.91
2022-09-24T04:09:20.233Z,58.85
2022-09-24T04:11:48.196Z,58.87
2022-09-24T04:14:15.915Z,58.98
2022-09-24T04:16:44.740Z,58.94
2022-09-24T04:19:12.731Z,58.96
2022-09-24T04:21:40.711Z,59.09
2022-09-24T04:24:08.974Z,59.13
2022-09-24T04:26:36.895Z,58.97
2022-09-24T04:29:04.749Z,58.87
2022-09-24T04:31:32.878Z,58.99
2022-09-24T04:34:01.459Z,58.92
2022-09-24T04:36:29.434Z,58.92
2022-09-24T04:38:57.415Z,58.92
2022-09-24T04:41:25.402Z,58.90
2022-09-24T04:43:53.339Z,58.78
2022-09-24T04:46:21.297Z,58.95
2022-09-24T04:48:49.565Z,58.89
2022-09-24T04:51:18.864Z,58.97
2022-09-24T04:53:47.285Z,58.89
2022-09-24T04:56:15.032Z,58.93
2022-09-24T04:58:43.091Z,59.09
2022-09-24T05:01:12.770Z,59.00
2022-09-24T05:03:40.639Z,59.07
2022-09-24T05:06:08.632Z,59.14
2022-09-24T05:08:36.420Z,59.12
2022-09-24T05:11:04.353Z,59.16
2022-09-24T05:13:32.316Z,59.11
2022-09-24T05:16:00.432Z,59.07
2022-09-24T05:18:28.386Z,59.07
2022-09-24T05:20:56.362Z,59.17
2022-09-24T05:23:24.603Z,59.08
2022-09-24T05:26:10.565Z,59.04
2022-09-24T05:28:38.943Z,59.00
2022-09-24T05:31:08.551Z,58.81
2022-09-24T05:33:37.016Z,58.92
2022-09-24T05:36:04.971Z,58.79
2022-09-24T05:38:33.085Z,58.71
2022-09-24T05:41:00.910Z,58.72
2022-09-24T05:43:28.876Z,58.51
2022-09-24T05:45:58.138Z,58.38
2022-09-24T05:48:26.165Z,58.41
2022-09-24T05:50:55.839Z,58.38
2022-09-24T05:53:24.931Z,58.17
2022-09-24T05:55:52.865Z,57.93
2022-09-24T05:58:20.963Z,57.90
2022-09-24T06:00:49.342Z,57.69
2022-09-24T06:03:18.480Z,57.60
2022-09-24T06:05:48.052Z,57.35
2022-09-24T06:08:16.247Z,57.15
2022-09-24T06:10:45.223Z,56.78
2022-09-24T06:13:13.570Z,56.56
2022-09-24T06:15:42.148Z,55.96
2022-09-24T06:18:10.482Z,55.50
2022-09-24T06:20:39.639Z,55.24
2022-09-24T06:23:07.735Z,54.85
2022-09-24T06:25:35.726Z,54.39
2022-09-24T06:28:04.588Z,54.02
2022-09-24T06:30:34.142Z,53.93
2022-09-24T06:33:04.813Z,53.61
2022-09-24T06:35:35.079Z,53.11
2022-09-24T06:38:02.873Z,52.90
2022-09-24T06:40:36.204Z,52.35
2022-09-24T06:43:06.031Z,52.23
2022-09-24T06:45:34.254Z,51.14
2022-09-24T06:48:03.613Z,50.57
2022-09-24T06:50:32.371Z,50.79
2022-09-24T06:53:00.387Z,49.97
2022-09-24T06:55:28.129Z,50.00
2022-09-24T06:58:06.080Z,50.18
2022-09-24T07:00:34.222Z,49.94
2022-09-24T07:03:02.459Z,50.06
2022-09-24T07:05:30.254Z,49.50
2022-09-24T07:07:58.100Z,49.37
2022-09-24T07:10:27.497Z,48.94
2022-09-24T07:12:55.546Z,48.88
2022-09-24T07:15:23.757Z,48.17
2022-09-24T07:17:55.494Z,48.06
2022-09-24T07:20:23.723Z,48.09
2022-09-24T07:22:51.663Z,47.85
2022-09-24T07:25:19.542Z,47.48
2022-09-24T07:27:47.908Z,47.41
2022-09-24T07:30:16.407Z,47.53
2022-09-24T07:32:44.335Z,47.34
2022-09-24T07:35:12.256Z,46.96
2022-09-24T07:37:40.098Z,46.70
2022-09-24T07:40:09.550Z,46.76
2022-09-24T07:42:38.684Z,46.42
2022-09-24T07:45:07.963Z,45.87
2022-09-24T07:47:35.932Z,45.92
2022-09-24T07:50:04.404Z,45.68
2022-09-24T07:52:32.316Z,45.53
2022-09-24T07:55:00.286Z,45.58
2022-09-24T07:57:28.252Z,45.42
2022-09-24T07:59:56.101Z,45.28
2022-09-24T08:02:24.479Z,45.42
2022-09-24T08:04:52.691Z,45.18
2022-09-24T08:07:20.603Z,44.83
2022-09-24T08:09:48.558Z,44.52
2022-09-24T08:12:16.515Z,44.26
2022-09-24T08:14:44.603Z,43.84
2022-09-24T08:17:13.005Z,43.92
2022-09-24T08:19:42.728Z,43.69
2022-09-24T08:22:11.913Z,43.52
2022-09-24T08:24:40.003Z,43.29
2022-09-24T08:27:07.908Z,42.96
2022-09-24T08:29:36.446Z,42.37
2022-09-24T08:32:04.692Z,42.92
2022-09-24T08:34:37.820Z,42.69
2022-09-24T08:37:05.773Z,42.55
2022-09-24T08:39:33.895Z,42.16
2022-09-24T08:42:04.076Z,42.37
2022-09-24T08:44:54.903Z,41.90
2022-09-24T08:47:31.736Z,41.49
2022-09-24T08:50:03.010Z,41.42
2022-09-24T08:52:36.622Z,41.40
2022-09-24T08:55:07.755Z,41.24
2022-09-24T08:57:38.388Z,41.18
2022-09-24T09:00:07.675Z,40.86
2022-09-24T09:02:40.946Z,40.58
2022-09-24T09:05:15.791Z,40.12
2022-09-24T09:07:49.274Z,40.40
2022-09-24T09:10:25.750Z,40.22
2022-09-24T09:12:55.207Z,39.75
2022-09-24T09:15:25.354Z,39.53
2022-09-24T09:17:57.045Z,39.67
2022-09-24T09:20:27.690Z,38.94
2022-09-24T09:22:58.303Z,38.98
2022-09-24T09:25:28.008Z,38.91
2022-09-24T09:27:58.857Z,38.96
2022-09-24T09:30:29.769Z,38.50
2022-09-24T09:33:04.072Z,38.03
2022-09-24T09:35:35.965Z,37.71
2022-09-24T09:38:07.421Z,37.57
2022-09-24T09:40:36.124Z,37.50
2022-09-24T09:43:05.223Z,37.48
2022-09-24T09:45:36.570Z,37.58
2022-09-24T09:48:05.027Z,37.31
2022-09-24T09:50:36.280Z,36.79
2022-09-24T09:53:04.346Z,36.79
2022-09-24T09:55:34.185Z,36.89
2022-09-24T09:58:09.801Z,36.71
2022-09-24T10:00:38.311Z,36.56
2022-09-24T10:03:06.368Z,36.33
2022-09-24T10:05:34.552Z,36.32
2022-09-24T10:08:02.285Z,36.46
2022-09-24T10:10:30.464Z,36.31
2022-09-24T10:13:08.684Z,36.13
2022-09-24T10:15:45.265Z,35.84
2022-09-24T10:18:14.740Z,35.58
2022-09-24T10:20:46.153Z,35.31
2022-09-24T10:23:18.906Z,35.30
2022-09-24T10:25:51.468Z,35.02
2022-09-24T10:28:38.396Z,34.97
2022-09-24T10:31:10.256Z,34.72
2022-09-24T10:33:38.793Z,34.58
2022-09-24T10:36:07.722Z,34.62
2022-09-24T10:38:35.638Z,34.64
2022-09-24T10:41:12.949Z,34.23
2022-09-24T10:43:49.789Z,34.02
2022-09-24T10:46:21.031Z,34.32
2022-09-24T10:48:54.228Z,34.34
2022-09-24T10:51:29.557Z,33.90
2022-09-24T10:54:03.419Z,33.63
2022-09-24T10:56:34.434Z,33.50
2022-09-24T10:59:16.428Z,33.58
2022-09-24T11:01:48.763Z,33.38
2022-09-24T11:04:22.507Z,33.36
2022-09-24T11:06:57.681Z,32.85
2022-09-24T11:09:31.381Z,33.15
2022-09-24T11:12:04.773Z,33.25
2022-09-24T11:14:44.553Z,33.22
2022-09-24T11:17:25.201Z,33.04
2022-09-24T11:20:04.874Z,33.32
2022-09-24T11:22:37.519Z,33.19
2022-09-24T11:25:18.079Z,33.10
2022-09-24T11:27:50.702Z,33.01
2022-09-24T11:30:19.646Z,32.94
2022-09-24T11:32:59.183Z,33.08
2022-09-24T11:35:35.461Z,32.80
2022-09-24T11:38:08.239Z,32.81
2022-09-24T11:40:42.463Z,32.86
2022-09-24T11:43:21.163Z,32.89
2022-09-24T11:45:58.598Z,32.69
2022-09-24T11:48:40.867Z,32.91
2022-09-24T11:51:14.881Z,32.81
2022-09-24T11:53:44.717Z,32.55
2022-09-24T11:56:17.859Z,32.43
2022-09-24T11:58:48.707Z,32.70
2022-09-24T12:01:20.173Z,32.88
2022-09-24T12:03:52.877Z,32.69
2022-09-24T12:06:24.539Z,32.50
2022-09-24T12:08:55.817Z,32.37
2022-09-24T12:11:30.372Z,32.40
2022-09-24T12:14:01.946Z,32.03
2022-09-24T12:16:33.098Z,32.39
2022-09-24T12:19:05.552Z,31.98
2022-09-24T12:21:36.214Z,32.41
2022-09-24T12:24:06.742Z,32.48
2022-09-24T12:26:37.547Z,32.36
2022-09-24T12:29:35.653Z,32.57
2022-09-24T12:32:24.421Z,32.53
2022-09-24T12:34:56.488Z,32.27
2022-09-24T12:37:29.110Z,32.25
2022-09-24T12:40:01.453Z,32.21
2022-09-24T12:42:32.536Z,32.32
2022-09-24T12:45:01.202Z,32.36
2022-09-24T12:47:32.668Z,32.14
2022-09-24T12:50:01.866Z,32.24
2022-09-24T12:52:35.065Z,32.41
2022-09-24T12:55:03.752Z,32.59
2022-09-24T12:57:35.134Z,32.38
2022-09-24T13:00:05.268Z,32.27
2022-09-24T13:02:45.120Z,32.05
2022-09-24T13:05:18.997Z,31.95
2022-09-24T13:07:56.858Z,31.67
2022-09-24T13:10:26.591Z,32.05
2022-09-24T13:12:55.766Z,31.87
2022-09-24T13:15:34.491Z,31.99
2022-09-24T13:18:04.130Z,32.01
2022-09-24T13:20:33.389Z,31.93
2022-09-24T13:23:12.222Z,31.89
2022-09-24T13:25:41.020Z,32.00
2022-09-24T13:28:21.210Z,32.10
2022-09-24T13:30:51.867Z,31.90
2022-09-24T13:33:24.587Z,32.07
2022-09-24T13:36:02.832Z,31.93
2022-09-24T13:38:33.457Z,32.01
2022-09-24T13:41:04.464Z,31.96
2022-09-24T13:43:39.634Z,31.88
2022-09-24T13:46:15.845Z,31.84
2022-09-24T13:48:47.424Z,31.84
2022-09-24T13:51:16.763Z,31.91
2022-09-24T13:53:49.103Z,31.71
2022-09-24T13:56:18.836Z,31.50
2022-09-24T13:58:46.958Z,31.84
2022-09-24T14:01:16.655Z,31.55
2022-09-24T14:03:53.468Z,31.49
2022-09-24T14:06:30.576Z,31.54
2022-09-24T14:08:58.487Z,31.50
2022-09-24T14:11:26.906Z,31.47
2022-09-24T14:13:55.808Z,31.31
2022-09-24T14:16:24.137Z,31.61
2022-09-24T14:19:02.373Z,31.75
2022-09-24T14:21:32.965Z,31.47
2022-09-24T14:24:03.332Z,31.50
2022-09-24T14:26:34.156Z,31.57
2022-09-24T14:29:05.590Z,31.45
2022-09-24T14:31:41.901Z,31.43
2022-09-24T14:34:22.151Z,31.56
2022-09-24T14:36:50.954Z,31.24
2022-09-24T14:39:18.864Z,31.24
2022-09-24T14:41:46.756Z,31.37
2022-09-24T14:44:20.869Z,31.57
2022-09-24T14:46:49.985Z,31.27
2022-09-24T14:49:20.291Z,31.33
2022-09-24T14:51:51.966Z,31.15
2022-09-24T14:54:21.794Z,31.40
2022-09-24T14:56:49.628Z,31.41
2022-09-24T14:59:27.727Z,31.42
2022-09-24T15:02:03.675Z,31.45
2022-09-24T15:04:31.573Z,31.38
2022-09-24T15:06:59.457Z,31.24
2022-09-24T15:09:28.515Z,31.37
2022-09-24T15:12:06.543Z,31.06
2022-09-24T15:14:35.548Z,30.97
2022-09-24T15:17:09.849Z,31.08
2022-09-24T15:19:42.532Z,31.26
2022-09-24T15:22:10.487Z,31.18
2022-09-24T15:24:38.311Z,31.19
2022-09-24T15:27:07.359Z,31.28
2022-09-24T15:29:36.406Z,30.95
2022-09-24T15:32:12.506Z,31.16
2022-09-24T15:34:40.336Z,30.99
2022-09-24T15:37:10.670Z,30.85
2022-09-24T15:39:39.360Z,31.12
2022-09-24T15:42:08.407Z,30.99
2022-09-24T15:44:36.347Z,30.86
2022-09-24T15:47:04.179Z,30.89
2022-09-24T15:49:32.060Z,30.78
2022-09-24T15:52:01.976Z,30.94
2022-09-24T15:54:29.784Z,30.93
2022-09-24T15:56:58.257Z,31.01
2022-09-24T15:59:27.235Z,31.15
2022-09-24T16:01:57.784Z,31.38
2022-09-24T16:04:25.749Z,31.54
2022-09-24T16:06:53.627Z,31.83
2022-09-24T16:09:21.513Z,31.87
2022-09-24T16:11:49.467Z,32.19
2022-09-24T16:14:17.440Z,32.11
2022-09-24T16:16:45.318Z,32.17
2022-09-24T16:19:13.533Z,32.38
2022-09-24T16:21:41.450Z,32.50
2022-09-24T16:24:09.294Z,32.68
2022-09-24T16:26:38.072Z,32.68
2022-09-24T16:29:08.223Z,32.67
2022-09-24T16:31:36.077Z,32.72
2022-09-24T16:34:03.930Z,32.99
2022-09-24T16:36:31.944Z,32.93
2022-09-24T16:39:00.195Z,33.10
2022-09-24T16:41:33.658Z,33.12
2022-09-24T16:44:01.794Z,33.25
2022-09-24T16:46:30.460Z,33.23
2022-09-24T16:48:58.408Z,33.43
2022-09-24T16:51:26.284Z,33.46
2022-09-24T16:53:55.264Z,33.51
2022-09-24T16:56:23.411Z,33.60
2022-09-24T16:58:51.908Z,33.79
2022-09-24T17:01:21.154Z,33.90
2022-09-24T17:03:51.857Z,33.86
2022-09-24T17:06:20.510Z,33.93
2022-09-24T17:09:06.961Z,34.04
2022-09-24T17:11:35.395Z,34.13
2022-09-24T17:14:03.271Z,34.30
2022-09-24T17:16:31.381Z,34.27
2022-09-24T17:18:59.925Z,34.51
2022-09-24T17:21:27.876Z,34.54
2022-09-24T17:23:55.771Z,34.66
2022-09-24T17:26:24.466Z,34.77
2022-09-24T17:28:53.160Z,34.88
2022-09-24T17:31:22.351Z,34.96
2022-09-24T17:33:55.647Z,34.95
2022-09-24T17:36:23.993Z,35.05
2022-09-24T17:38:51.847Z,35.10
2022-09-24T17:41:19.740Z,35.18
2022-09-24T17:43:47.624Z,35.21
2022-09-24T17:46:16.534Z,35.31
2022-09-24T17:48:46.091Z,35.42
2022-09-24T17:51:14.972Z,35.47
2022-09-24T17:53:43.044Z,35.60
2022-09-24T17:56:12.376Z,35.58
2022-09-24T17:58:40.779Z,35.68
2022-09-24T18:01:10.009Z,35.81
2022-09-24T18:03:38.601Z,35.89
2022-09-24T18:06:07.634Z,35.93
2022-09-24T18:08:36.941Z,35.98
2022-09-24T18:11:05.841Z,36.00
2022-09-24T18:13:34.165Z,36.17
2022-09-24T18:16:05.558Z,36.25
2022-09-24T18:18:33.685Z,36.25
2022-09-24T18:21:02.120Z,36.28
2022-09-24T18:23:30.508Z,36.36
2022-09-24T18:26:09.854Z,36.51
2022-09-24T18:28:38.543Z,36.54
2022-09-24T18:31:07.898Z,36.68
2022-09-24T18:33:36.857Z,36.84
2022-09-24T18:36:06.604Z,36.94
2022-09-24T18:38:34.804Z,37.03
2022-09-24T18:41:08.724Z,37.08
2022-09-24T18:43:36.799Z,37.16
2022-09-24T18:46:05.603Z,37.25
2022-09-24T18:48:33.510Z,37.38
2022-09-24T18:51:01.869Z,37.42
2022-09-24T18:53:30.821Z,37.41
2022-09-24T18:55:59.348Z,37.61
2022-09-24T18:58:27.360Z,37.67
2022-09-24T19:00:58.623Z,37.66
2022-09-24T19:03:27.879Z,37.78
2022-09-24T19:05:59.412Z,37.91
2022-09-24T19:08:28.039Z,38.01
2022-09-24T19:11:00.471Z,38.03
2022-09-24T19:13:28.355Z,38.11
2022-09-24T19:15:56.275Z,38.27
2022-09-24T19:18:24.247Z,38.36
2022-09-24T19:20:52.781Z,38.41
2022-09-24T19:23:20.647Z,38.57
2022-09-24T19:25:48.710Z,38.56
2022-09-24T19:28:16.485Z,38.74
2022-09-24T19:30:45.371Z,38.84
2022-09-24T19:33:15.406Z,38.80
2022-09-24T19:35:52.027Z,38.94
2022-09-24T19:38:21.675Z,39.02
2022-09-24T19:40:56.680Z,39.08
2022-09-24T19:43:24.818Z,39.20
2022-09-24T19:45:57.573Z,39.31
2022-09-24T19:48:26.183Z,39.49
2022-09-24T19:50:54.604Z,39.48
2022-09-24T19:53:22.384Z,39.63
2022-09-24T19:55:50.380Z,39.48
2022-09-24T19:58:18.258Z,39.60
2022-09-24T20:00:46.128Z,39.69
2022-09-24T20:03:15.115Z,39.85
2022-09-24T20:05:43.129Z,39.87
2022-09-24T20:08:12.036Z,39.99
2022-09-24T20:10:40.715Z,40.08
2022-09-24T20:13:10.066Z,40.17
2022-09-24T20:15:38.263Z,40.19
2022-09-24T20:18:06.843Z,40.28
2022-09-24T20:20:34.954Z,40.38
2022-09-24T20:23:02.816Z,40.46
2022-09-24T20:25:48.090Z,40.52
2022-09-24T20:28:16.096Z,40.66
2022-09-24T20:30:44.107Z,40.75
2022-09-24T20:33:12.631Z,40.73
2022-09-24T20:35:41.523Z,40.85
2022-09-24T20:38:09.694Z,40.69
2022-09-24T20:40:40.684Z,40.79
2022-09-24T20:43:08.739Z,41.02
2022-09-24T20:45:40.768Z,40.93
2022-09-24T20:48:08.636Z,40.98
2022-09-24T20:50:36.467Z,41.08
2022-09-24T20:53:04.307Z,41.14
2022-09-24T20:55:32.426Z,41.32
2022-09-24T20:58:00.677Z,41.33
2022-09-24T21:00:35.049Z,41.55
2022-09-24T21:03:15.468Z,41.59
2022-09-24T21:05:51.778Z,41.40
2022-09-24T21:08:19.711Z,40.95
2022-09-24T21:10:47.516Z,41.03
2022-09-24T21:13:15.383Z,40.83
2022-09-24T21:15:43.373Z,41.21
2022-09-24T21:18:22.863Z,41.33
2022-09-24T21:20:52.063Z,41.36
2022-09-24T21:23:21.484Z,41.32
2022-09-24T21:25:54.446Z,41.56
2022-09-24T21:28:23.174Z,41.77
2022-09-24T21:30:57.304Z,41.65
2022-09-24T21:33:25.324Z,41.68
2022-09-24T21:35:53.899Z,41.81
2022-09-24T21:38:21.631Z,41.92
2022-09-24T21:40:53.090Z,41.68
2022-09-24T21:43:23.043Z,41.64
2022-09-24T21:45:52.011Z,41.86
2022-09-24T21:48:19.894Z,41.79
2022-09-24T21:50:47.822Z,41.88
2022-09-24T21:53:15.754Z,41.90
2022-09-24T21:55:47.801Z,41.94
2022-09-24T21:58:15.664Z,42.08
2022-09-24T22:00:43.397Z,42.09
2022-09-24T22:03:11.792Z,42.11
2022-09-24T22:05:42.341Z,42.19
2022-09-24T22:08:12.371Z,42.22
2022-09-24T22:10:40.943Z,42.18
2022-09-24T22:13:09.316Z,42.30
2022-09-24T22:15:37.186Z,43.09
2022-09-24T22:18:05.413Z,43.45
2022-09-24T22:20:33.252Z,43.55
2022-09-24T22:23:00.970Z,43.81
2022-09-24T22:25:28.880Z,43.39
2022-09-24T22:27:56.741Z,43.57
2022-09-24T22:30:24.733Z,43.71
2022-09-24T22:32:52.694Z,43.50
2022-09-24T22:35:50.005Z,43.60
2022-09-24T22:38:18.313Z,43.53
2022-09-24T22:40:46.150Z,43.54
2022-09-24T22:43:14.036Z,43.76
2022-09-24T22:45:42.876Z,43.66
2022-09-24T22:48:10.767Z,43.79
2022-09-24T22:50:38.553Z,43.89
2022-09-24T22:53:06.517Z,44.09
2022-09-24T22:55:34.380Z,44.05
2022-09-24T22:58:02.244Z,44.01
2022-09-24T23:00:30.040Z,44.02
2022-09-24T23:02:57.945Z,44.25
2022-09-24T23:05:26.250Z,44.34
2022-09-24T23:07:54.153Z,44.31
2022-09-24T23:10:21.995Z,44.38
2022-09-24T23:12:49.908Z,44.51
2022-09-24T23:15:18.607Z,44.58
2022-09-24T23:17:47.238Z,44.54
2022-09-24T23:20:16.199Z,44.81
2022-09-24T23:22:44.096Z,44.79
2022-09-24T23:25:12.165Z,44.91
2022-09-24T23:27:39.919Z,44.90
2022-09-24T23:30:09.121Z,44.85
2022-09-24T23:32:36.979Z,45.00
2022-09-24T23:35:05.595Z,45.09
2022-09-24T23:37:33.446Z,45.16
2022-09-24T23:40:02.019Z,45.21
2022-09-24T23:42:30.808Z,45.08
2022-09-24T23:44:58.718Z,45.30
2022-09-24T23:47:26.542Z,45.57
2022-09-24T23:49:54.640Z,45.49
2022-09-24T23:52:22.640Z,45.41
2022-09-24T23:54:50.597Z,45.72
2022-09-24T23:57:18.486Z,45.56
2022-09-24T23:59:46.433Z,45.81
